Time;durP1;ratioP1;P1;durP2;ratioP2;P2;SDS_P1;SDS_P2;PMS_P1;PMS_P2;Temp;Humidity;BMP_temperature;BMP_pressure;BME280_temperature;BME280_humidity;BME280_pressure;Samples;Min_cycle;Max_cycle;Signal;HPM_P1;HPM_P2
2023/01/27 00:05:53;;;;;;;78.50;37.00;;;;;;;-1.30;100.00;99190.07;270361;1266;25177;-87
2023/01/27 00:18:15;;;;;;;80.10;38.00;;;;;;;-1.30;100.00;99187.17;273768;1267;22342;-88
2023/01/27 00:24:34;;;;;;;75.80;34.80;;;;;;;-1.29;100.00;99184.15;273814;1267;22352;-89
2023/01/27 00:30:36;;;;;;;78.00;33.60;;;;;;;-1.28;100.00;99181.45;272500;1267;22509;-88
2023/01/27 00:36:40;;;;;;;68.50;33.70;;;;;;;-1.30;100.00;99183.73;272665;1266;22209;-88
2023/01/27 00:42:42;;;;;;;72.20;33.00;;;;;;;-1.31;100.00;99183.17;273659;1267;22202;-87
2023/01/27 00:48:44;;;;;;;70.40;35.20;;;;;;;-1.33;100.00;99180.93;273006;1267;22361;-88
2023/01/27 00:54:45;;;;;;;74.20;34.20;;;;;;;-1.33;100.00;99185.39;270762;1267;22497;-88
2023/01/27 01:00:47;;;;;;;67.90;33.40;;;;;;;-1.35;100.00;99183.23;273886;1267;22605;-87
2023/01/27 01:06:49;;;;;;;68.60;33.10;;;;;;;-1.36;100.00;99180.02;273902;1266;22358;-88
2023/01/27 01:12:51;;;;;;;71.20;33.40;;;;;;;-1.39;100.00;99179.05;273776;1266;22440;-88
2023/01/27 01:18:53;;;;;;;90.30;39.50;;;;;;;-1.40;100.00;99179.02;273765;1267;22402;-89
2023/01/27 01:24:55;;;;;;;97.50;42.60;;;;;;;-1.42;100.00;99171.53;270833;1267;22605;-88
2023/01/27 01:31:06;;;;;;;114.20;48.30;;;;;;;-1.42;100.00;99168.24;270214;1267;22711;-87
2023/01/27 01:37:08;;;;;;;107.80;45.00;;;;;;;-1.45;100.00;99165.92;271166;1267;22313;-87
2023/01/27 01:43:16;;;;;;;99.10;43.00;;;;;;;-1.50;100.00;99163.01;272446;1266;22557;-87
2023/01/27 01:49:21;;;;;;;101.80;45.60;;;;;;;-1.52;100.00;99160.77;269986;1266;23371;-87
2023/01/27 01:55:23;;;;;;;108.40;43.00;;;;;;;-1.53;100.00;99167.52;270002;1267;24017;-87
2023/01/27 02:01:25;;;;;;;94.70;42.90;;;;;;;-1.54;100.00;99167.78;270237;1269;23217;-87
2023/01/27 02:07:33;;;;;;;88.90;38.10;;;;;;;-1.55;100.00;99166.30;270682;1267;22454;-87
2023/01/27 02:13:35;;;;;;;80.90;35.60;;;;;;;-1.57;100.00;99165.42;273761;1267;24145;-87
2023/01/27 02:19:59;;;;;;;78.90;35.70;;;;;;;-1.56;100.00;99157.14;272288;1267;22361;-87
2023/01/27 02:26:09;;;;;;;73.60;33.50;;;;;;;-1.55;100.00;99160.11;273526;1267;22493;-87
2023/01/27 02:32:26;;;;;;;70.70;32.40;;;;;;;-1.53;100.00;99165.52;273540;1267;23757;-87
2023/01/27 02:38:33;;;;;;;67.30;31.70;;;;;;;-1.52;100.00;99167.13;271398;1267;24252;-87
2023/01/27 02:44:35;;;;;;;76.00;34.10;;;;;;;-1.52;100.00;99170.14;270524;1267;22531;-88
2023/01/27 02:50:37;;;;;;;79.30;35.80;;;;;;;-1.52;100.00;99168.95;270236;1261;23116;-87
2023/01/27 02:56:39;;;;;;;75.40;33.80;;;;;;;-1.53;100.00;99170.83;270717;1267;22320;-87
2023/01/27 03:02:42;;;;;;;75.10;34.10;;;;;;;-1.52;100.00;99172.80;273795;1267;22368;-87
2023/01/27 03:08:43;;;;;;;68.30;31.60;;;;;;;-1.51;100.00;99170.10;272041;1266;22335;-88
2023/01/27 03:21:10;;;;;;;74.40;33.90;;;;;;;-1.48;100.00;99166.03;273661;1266;22743;-88
2023/01/27 03:27:12;;;;;;;71.00;33.80;;;;;;;-1.48;100.00;99161.20;273917;1267;23217;-88
2023/01/27 03:33:33;;;;;;;77.70;33.10;;;;;;;-1.48;100.00;99161.52;273710;1267;22451;-89
2023/01/27 03:46:15;;;;;;;75.20;35.00;;;;;;;-1.45;100.00;99153.58;272126;1267;22591;-87
2023/01/27 03:52:21;;;;;;;78.80;36.60;;;;;;;-1.46;100.00;99151.39;270937;1267;23982;-88
2023/01/27 03:58:23;;;;;;;75.40;34.20;;;;;;;-1.48;100.00;99152.45;273458;1267;22460;-87
2023/01/27 04:17:27;;;;;;;78.10;32.50;;;;;;;-1.51;100.00;99156.80;271360;1267;24397;-88
2023/01/27 04:23:28;;;;;;;66.00;32.20;;;;;;;-1.51;100.00;99157.59;271048;1266;22202;-88
2023/01/27 04:29:39;;;;;;;73.80;33.50;;;;;;;-1.50;100.00;99156.94;273701;1267;23166;-88
2023/01/27 04:35:44;;;;;;;71.70;31.90;;;;;;;-1.50;100.00;99157.32;273640;1267;23264;-88
2023/01/27 04:41:47;;;;;;;64.60;29.00;;;;;;;-1.50;100.00;99161.23;271876;1267;22310;-88
2023/01/27 04:47:49;;;;;;;56.70;25.50;;;;;;;-1.49;100.00;99162.30;270584;1267;23391;-88
2023/01/27 04:53:52;;;;;;;50.40;22.90;;;;;;;-1.50;100.00;99162.48;272816;1266;22506;-88
2023/01/27 04:59:54;;;;;;;47.90;22.70;;;;;;;-1.51;100.00;99161.84;272557;1267;23866;-90
2023/01/27 05:05:56;;;;;;;47.40;21.70;;;;;;;-1.51;100.00;99162.93;272096;1267;22230;-88
2023/01/27 05:11:58;;;;;;;43.20;20.80;;;;;;;-1.52;100.00;99162.61;273687;1266;23668;-89
2023/01/27 05:18:00;;;;;;;39.50;19.10;;;;;;;-1.52;100.00;99165.73;272124;1265;23285;-89
2023/01/27 05:24:03;;;;;;;39.30;18.70;;;;;;;-1.53;100.00;99165.52;272326;1266;22327;-88
2023/01/27 05:30:06;;;;;;;38.00;18.40;;;;;;;-1.53;100.00;99167.57;271654;1267;23350;-88
2023/01/27 05:36:10;;;;;;;41.60;19.00;;;;;;;-1.54;100.00;99169.92;272512;1266;23482;-88
2023/01/27 05:42:12;;;;;;;43.20;20.00;;;;;;;-1.54;100.00;99173.74;271399;1266;23735;-89
2023/01/27 05:48:14;;;;;;;38.80;19.40;;;;;;;-1.55;100.00;99178.43;270347;1263;22561;-88
2023/01/27 05:54:16;;;;;;;44.40;21.10;;;;;;;-1.56;100.00;99178.83;273302;1267;22308;-88
2023/01/27 06:00:20;;;;;;;42.80;19.70;;;;;;;-1.55;100.00;99177.36;271967;1266;22560;-88
2023/01/27 06:06:26;;;;;;;43.50;20.40;;;;;;;-1.52;100.00;99182.80;270497;1267;22548;-87
2023/01/27 06:12:28;;;;;;;45.60;21.20;;;;;;;-1.52;100.00;99191.34;270521;1266;22570;-88
2023/01/27 06:18:31;;;;;;;47.00;21.40;;;;;;;-1.54;100.00;99193.39;271081;1266;22658;-88
2023/01/27 06:24:34;;;;;;;51.90;24.20;;;;;;;-1.56;100.00;99197.49;272276;1267;22340;-88
2023/01/27 06:30:37;;;;;;;46.70;21.10;;;;;;;-1.58;100.00;99203.22;272986;1267;22313;-89
2023/01/27 06:36:43;;;;;;;54.20;25.10;;;;;;;-1.59;100.00;99207.05;273840;1267;22193;-88
2023/01/27 06:42:45;;;;;;;46.80;22.10;;;;;;;-1.59;100.00;99206.20;273663;1254;23980;-89
2023/01/27 06:48:47;;;;;;;47.60;21.70;;;;;;;-1.57;100.00;99203.16;272937;1266;22354;-86
2023/01/27 06:54:49;;;;;;;45.10;22.30;;;;;;;-1.56;100.00;99207.54;272271;1266;22287;-87
2023/01/27 07:00:51;;;;;;;48.10;23.20;;;;;;;-1.54;100.00;99211.34;273450;1266;22304;-88
2023/01/27 07:06:53;;;;;;;51.30;24.40;;;;;;;-1.52;100.00;99221.25;272775;1267;22452;-86
2023/01/27 07:13:05;;;;;;;49.70;21.70;;;;;;;-1.54;100.00;99218.64;271973;1267;23900;-87
2023/01/27 07:19:07;;;;;;;44.70;22.20;;;;;;;-1.55;100.00;99221.27;271387;1267;24069;-88
2023/01/27 07:25:12;;;;;;;49.60;22.00;;;;;;;-1.54;100.00;99223.64;271437;1267;22544;-87
2023/01/27 07:31:16;;;;;;;47.30;22.80;;;;;;;-1.54;100.00;99228.52;270585;1260;22831;-85
2023/01/27 07:37:18;;;;;;;48.60;23.00;;;;;;;-1.51;100.00;99229.13;272536;1266;22733;-87
2023/01/27 07:43:21;;;;;;;52.20;24.10;;;;;;;-1.48;100.00;99232.08;271559;1266;23412;-86
2023/01/27 07:49:23;;;;;;;55.30;24.70;;;;;;;-1.46;100.00;99235.05;269939;1266;24260;-86
2023/01/27 07:55:26;;;;;;;54.70;25.80;;;;;;;-1.43;100.00;99243.45;271188;1266;23553;-85
2023/01/27 08:01:28;;;;;;;58.20;24.50;;;;;;;-1.41;100.00;99239.39;269487;1267;22584;-86
2023/01/27 08:07:30;;;;;;;55.50;24.60;;;;;;;-1.40;100.00;99240.94;273807;1259;23024;-87
2023/01/27 08:13:32;;;;;;;50.00;23.30;;;;;;;-1.39;100.00;99247.58;273676;1266;150988;-86
2023/01/27 08:19:34;;;;;;;49.50;23.80;;;;;;;-1.36;100.00;99250.00;272686;1267;22548;-86
2023/01/27 08:25:36;;;;;;;53.70;23.80;;;;;;;-1.34;100.00;99253.84;269339;1255;24979;-87
2023/01/27 08:31:40;;;;;;;49.90;23.40;;;;;;;-1.30;100.00;99252.98;269435;1260;22526;-86
2023/01/27 08:37:42;;;;;;;46.00;23.40;;;;;;;-1.28;100.00;99257.73;270544;1258;23170;-86
2023/01/27 08:43:44;;;;;;;52.80;23.40;;;;;;;-1.26;100.00;99266.73;269698;1259;24267;-86
2023/01/27 08:49:46;;;;;;;49.60;22.50;;;;;;;-1.21;100.00;99268.20;270184;1266;22537;-86
2023/01/27 08:55:48;;;;;;;59.30;28.30;;;;;;;-1.17;100.00;99273.94;269195;1250;22606;-87
2023/01/27 09:01:50;;;;;;;57.70;27.50;;;;;;;-1.08;100.00;99274.07;273749;1259;22555;-87
2023/01/27 09:07:52;;;;;;;48.90;22.40;;;;;;;-0.96;100.00;99277.11;273947;1266;22345;-87
2023/01/27 09:13:55;;;;;;;45.40;20.20;;;;;;;-0.89;100.00;99275.11;273552;1256;22306;-86
2023/01/27 09:19:57;;;;;;;48.00;22.90;;;;;;;-0.84;100.00;99273.27;273875;1266;23138;-87
2023/01/27 09:25:59;;;;;;;45.60;21.20;;;;;;;-0.78;100.00;99276.34;273025;1267;22340;-86
2023/01/27 09:32:02;;;;;;;53.50;24.50;;;;;;;-0.74;100.00;99281.91;273747;1267;22322;-86
2023/01/27 09:38:05;;;;;;;47.40;22.00;;;;;;;-0.72;100.00;99284.29;272722;1265;22992;-86
2023/01/27 09:44:13;;;;;;;45.40;21.90;;;;;;;-0.72;100.00;99282.20;272630;1268;23009;-87
2023/01/27 09:50:37;;;;;;;50.60;22.70;;;;;;;-0.69;100.00;99275.65;270785;1267;26034;-86
2023/01/27 09:56:58;;;;;;;50.20;24.10;;;;;;;-0.63;100.00;99267.52;269501;1267;22657;-87
2023/01/27 10:03:11;;;;;;;56.20;25.60;;;;;;;-0.54;100.00;99262.64;270071;1266;22594;-87
2023/01/27 10:09:38;;;;;;;60.80;27.50;;;;;;;-0.47;100.00;99259.77;270227;1267;22584;-87
2023/01/27 10:15:43;;;;;;;;;;;;;;;-0.41;100.00;99258.68;270792;1267;22568;-87
2023/01/27 10:21:57;;;;;;;56.50;26.80;;;;;;;-0.39;100.00;99257.95;270212;1266;23368;-88
2023/01/27 10:28:06;;;;;;;64.20;29.50;;;;;;;-0.42;100.00;99253.21;270417;1256;22962;-87
2023/01/27 10:34:21;;;;;;;66.40;28.10;;;;;;;-0.38;100.00;99249.38;271396;1265;22608;-87
2023/01/27 10:40:38;;;;;;;64.70;29.50;;;;;;;-0.31;100.00;99247.54;273455;1264;22413;-87
2023/01/27 10:46:55;;;;;;;65.00;28.80;;;;;;;-0.23;100.00;99248.73;273507;1266;22238;-88
2023/01/27 10:53:32;;;;;;;66.10;29.30;;;;;;;-0.14;100.00;99247.85;271899;1266;22578;-88
2023/01/27 11:00:09;;;;;;;58.00;26.10;;;;;;;-0.07;100.00;99245.88;271482;1266;22424;-87
2023/01/27 11:06:17;;;;;;;56.20;26.90;;;;;;;-0.04;100.00;99245.42;272004;1267;22901;-87
2023/01/27 11:12:27;;;;;;;53.00;24.20;;;;;;;-0.01;100.00;99251.30;273640;1266;23068;-87
2023/01/27 11:18:33;;;;;;;57.50;27.50;;;;;;;-0.01;100.00;99253.98;273534;1266;22355;-88
2023/01/27 11:25:11;;;;;;;56.00;26.00;;;;;;;0.00;100.00;99250.90;273304;1267;22555;-88
2023/01/27 11:31:31;;;;;;;53.30;27.70;;;;;;;0.02;100.00;99251.08;273634;1266;22392;-89
2023/01/27 11:37:40;;;;;;;51.10;24.80;;;;;;;0.05;100.00;99245.91;273034;1266;23040;-87
2023/01/27 11:43:46;;;;;;;53.40;24.40;;;;;;;0.07;100.00;99251.52;271772;1266;22526;-88
2023/01/27 11:49:51;;;;;;;58.50;24.90;;;;;;;0.08;100.00;99247.52;270617;1266;25388;-88
2023/01/27 11:55:59;;;;;;;62.30;28.90;;;;;;;0.08;100.00;99246.98;271515;1266;25297;-86
2023/01/27 12:02:27;;;;;;;55.80;25.90;;;;;;;0.03;100.00;99250.84;271595;1266;22496;-87
2023/01/27 12:08:48;;;;;;;55.40;25.00;;;;;;;0.02;100.00;99253.83;271560;1266;22476;-87
2023/01/27 12:14:59;;;;;;;57.00;25.60;;;;;;;0.01;100.00;99249.16;273339;1267;23431;-88
2023/01/27 12:21:06;;;;;;;59.70;26.10;;;;;;;-0.05;100.00;99252.06;273025;1266;23778;-87
2023/01/27 12:27:19;;;;;;;55.90;26.90;;;;;;;-0.08;100.00;99252.29;271654;1266;25323;-88
2023/01/27 12:33:26;;;;;;;57.70;27.20;;;;;;;-0.11;100.00;99245.80;271539;1266;22238;-88
2023/01/27 12:39:49;;;;;;;59.60;27.30;;;;;;;-0.13;100.00;99245.30;273174;1267;23668;-88
2023/01/27 12:46:07;;;;;;;59.70;27.10;;;;;;;-0.18;100.00;99246.41;272883;1266;22548;-89
2023/01/27 12:52:17;;;;;;;57.60;26.60;;;;;;;-0.20;100.00;99242.96;272190;1266;22644;-86
2023/01/27 12:58:35;;;;;;;65.90;28.60;;;;;;;-0.19;100.00;99240.30;269962;1266;22580;-87
2023/01/27 13:04:37;;;;;;;57.40;27.80;;;;;;;-0.17;100.00;99239.67;270138;1267;23369;-88
2023/01/27 13:10:48;;;;;;;60.70;28.90;;;;;;;-0.19;100.00;99239.88;271140;1267;22653;-89
2023/01/27 13:16:52;;;;;;;61.50;27.90;;;;;;;-0.18;100.00;99240.39;271078;1263;22540;-89
2023/01/27 13:23:09;;;;;;;56.50;26.40;;;;;;;-0.21;100.00;99242.98;271648;1267;22413;-88
2023/01/27 13:29:15;;;;;;;66.00;29.00;;;;;;;-0.24;100.00;99247.05;272049;1257;22594;-88
2023/01/27 13:36:10;;;;;;;56.80;26.50;;;;;;;-0.24;100.00;99246.70;270819;1267;22579;-88
2023/01/27 13:42:36;;;;;;;54.00;25.30;;;;;;;-0.26;100.00;99250.02;269219;1275;22643;-88
2023/01/27 13:48:45;;;;;;;59.70;27.80;;;;;;;-0.28;100.00;99255.36;270634;1265;22538;-89
2023/01/27 13:54:53;;;;;;;61.00;26.80;;;;;;;-0.28;100.00;99258.40;272140;1266;22291;-88
2023/01/27 14:01:27;;;;;;;58.20;27.10;;;;;;;-0.29;100.00;99261.52;272512;1258;25246;-88
2023/01/27 14:07:51;;;;;;;52.70;25.40;;;;;;;-0.30;100.00;99271.92;271018;1266;22560;-87
2023/01/27 14:13:57;;;;;;;55.90;26.10;;;;;;;-0.30;100.00;99271.35;271473;1267;22551;-88
2023/01/27 14:20:13;;;;;;;57.80;26.50;;;;;;;-0.30;100.00;99275.12;270370;1265;23866;-89
2023/01/27 14:26:52;;;;;;;61.50;27.00;;;;;;;-0.31;100.00;99271.10;271747;1266;22404;-89
2023/01/27 14:33:24;;;;;;;64.60;30.20;;;;;;;-0.32;100.00;99273.96;272599;1267;23580;-89
2023/01/27 14:40:00;;;;;;;68.10;31.30;;;;;;;-0.32;100.00;99276.10;271051;1266;22549;-88
2023/01/27 14:46:06;;;;;;;64.90;27.40;;;;;;;-0.31;100.00;99280.84;270680;1266;22575;-89
2023/01/27 14:52:26;;;;;;;56.80;25.70;;;;;;;-0.31;100.00;99288.68;269840;1268;22628;-89
2023/01/27 14:58:49;;;;;;;62.30;27.40;;;;;;;-0.32;100.00;99293.02;269962;1266;22558;-88
2023/01/27 15:05:27;;;;;;;63.30;26.30;;;;;;;-0.33;100.00;99297.39;271626;1266;23089;-89
2023/01/27 15:11:39;;;;;;;54.10;25.00;;;;;;;-0.34;100.00;99311.61;273780;1267;22989;-88
2023/01/27 15:18:00;;;;;;;57.60;25.00;;;;;;;-0.35;100.00;99320.13;273440;1268;22366;-89
2023/01/27 15:24:24;;;;;;;57.10;26.10;;;;;;;-0.35;100.00;99324.59;273345;1267;23230;-88
2023/01/27 15:30:37;;;;;;;50.40;22.60;;;;;;;-0.37;100.00;99321.84;272847;1268;22567;-88
2023/01/27 15:36:59;;;;;;;48.80;22.90;;;;;;;-0.40;100.00;99317.58;270818;1267;22437;-90
2023/01/27 15:43:06;;;;;;;49.70;22.80;;;;;;;-0.45;100.00;99317.70;272131;1267;22673;-88
2023/01/27 15:49:18;;;;;;;49.70;22.90;;;;;;;-0.43;100.00;99321.23;271580;1267;22346;-88
2023/01/27 15:55:26;;;;;;;42.60;19.70;;;;;;;-0.44;100.00;99329.59;273491;1268;22377;-89
2023/01/27 16:01:36;;;;;;;45.30;22.00;;;;;;;-0.43;100.00;99332.86;272513;1267;23590;-88
2023/01/27 16:07:39;;;;;;;43.40;19.90;;;;;;;-0.44;100.00;99329.20;271128;1267;22623;-88
2023/01/27 16:13:47;;;;;;;45.40;20.90;;;;;;;-0.45;100.00;99327.34;272706;1267;23325;-87
2023/01/27 16:20:19;;;;;;;41.10;19.10;;;;;;;-0.47;100.00;99323.83;272697;1266;23396;-89
2023/01/27 16:26:29;;;;;;;35.10;17.40;;;;;;;-0.49;100.00;99320.37;270620;1267;22224;-89
2023/01/27 16:32:40;;;;;;;31.30;16.90;;;;;;;-0.51;100.00;99325.30;270950;1266;22930;-88
2023/01/27 16:38:45;;;;;;;33.90;16.20;;;;;;;-0.52;100.00;99336.39;273427;1266;22525;-89
2023/01/27 16:44:50;;;;;;;25.60;12.30;;;;;;;-0.53;100.00;99336.46;273030;1267;23315;-88
2023/01/27 16:50:54;;;;;;;22.90;12.40;;;;;;;-0.55;100.00;99343.34;273031;1267;22368;-88
2023/01/27 16:56:56;;;;;;;27.90;13.40;;;;;;;-0.57;100.00;99353.96;273529;1267;22637;-88
2023/01/27 17:03:07;;;;;;;24.60;11.70;;;;;;;-0.58;100.00;99357.20;273838;1267;22330;-88
2023/01/27 17:09:27;;;;;;;23.70;11.60;;;;;;;-0.60;100.00;99361.63;273422;1267;23936;-88
2023/01/27 17:15:34;;;;;;;24.00;12.20;;;;;;;-0.60;99.93;99361.54;273518;1266;22351;-88
2023/01/27 17:21:39;;;;;;;22.90;11.80;;;;;;;-0.61;99.51;99369.56;272485;1269;22410;-87
2023/01/27 17:27:42;;;;;;;24.90;11.80;;;;;;;-0.61;99.43;99370.16;272019;1266;23178;-88
2023/01/27 17:33:57;;;;;;;23.50;11.50;;;;;;;-0.63;99.35;99367.45;265862;1266;10001617;-88
2023/01/27 17:40:02;;;;;;;23.50;12.00;;;;;;;-0.64;99.18;99373.85;273756;1266;22464;-90
2023/01/27 17:46:04;;;;;;;30.30;12.60;;;;;;;-0.64;99.00;99372.45;272272;1266;23467;-87
2023/01/27 17:52:10;;;;;;;26.70;13.20;;;;;;;-0.65;98.89;99378.77;271687;1267;22541;-88
2023/01/27 17:58:21;;;;;;;35.50;13.60;;;;;;;-0.66;98.54;99381.63;271772;1263;22411;-89
2023/01/27 18:04:23;;;;;;;27.50;13.60;;;;;;;-0.68;98.60;99384.61;273579;1266;22396;-87
2023/01/27 18:10:33;;;;;;;23.50;12.70;;;;;;;-0.70;98.49;99384.76;273793;1267;22456;-88
2023/01/27 18:16:35;;;;;;;26.10;13.50;;;;;;;-0.72;98.19;99389.13;273644;1267;23083;-87
2023/01/27 18:22:42;;;;;;;25.80;13.50;;;;;;;-0.74;98.29;99395.36;272260;1266;22519;-88
2023/01/27 18:28:48;;;;;;;39.10;18.60;;;;;;;-0.76;98.05;99401.73;272585;1266;23595;-88
2023/01/27 18:34:54;;;;;;;29.80;14.30;;;;;;;-0.78;98.06;99408.64;272653;1267;22216;-90
2023/01/27 18:41:10;;;;;;;28.00;14.90;;;;;;;-0.81;98.09;99414.75;273329;1266;22191;-88
2023/01/27 18:47:18;;;;;;;30.30;15.50;;;;;;;-0.82;97.90;99419.34;273441;1267;22310;-88
2023/01/27 18:53:20;;;;;;;32.80;16.90;;;;;;;-0.82;97.89;99428.64;273184;1268;22212;-90
2023/01/27 18:59:22;;;;;;;37.30;16.90;;;;;;;-0.83;97.90;99433.23;273582;1257;22453;-87
2023/01/27 19:05:34;;;;;;;34.60;17.00;;;;;;;-0.85;97.67;99438.73;272098;1266;22374;-88
2023/01/27 19:11:36;;;;;;;33.80;16.30;;;;;;;-0.90;97.61;99438.36;273619;1267;24006;-88
2023/01/27 19:17:37;;;;;;;32.90;15.50;;;;;;;-0.94;97.44;99440.73;273379;1267;22408;-88
2023/01/27 19:23:43;;;;;;;32.00;15.40;;;;;;;-0.97;97.35;99439.06;273328;1267;22508;-89
2023/01/27 19:29:45;;;;;;;37.00;16.10;;;;;;;-1.01;97.16;99441.96;273378;1266;23399;-86
2023/01/27 19:35:51;;;;;;;35.40;15.20;;;;;;;-1.06;97.13;99443.96;272739;1267;22440;-87
2023/01/27 19:41:53;;;;;;;33.90;15.40;;;;;;;-1.09;96.84;99448.36;271768;1267;22526;-88
2023/01/27 19:47:58;;;;;;;39.70;17.80;;;;;;;-1.13;96.84;99449.27;271028;1267;22584;-87
2023/01/27 19:54:03;;;;;;;36.60;16.60;;;;;;;-1.15;96.76;99448.32;273522;1267;22249;-88
2023/01/27 20:00:06;;;;;;;37.70;18.50;;;;;;;-1.18;96.58;99446.48;273619;1267;22516;-88
2023/01/27 20:06:27;;;;;;;59.80;28.00;;;;;;;-1.20;96.58;99449.34;273100;1267;22587;-89
2023/01/27 20:12:29;;;;;;;38.40;18.00;;;;;;;-1.19;96.82;99461.11;272567;1266;86047;-86
2023/01/27 20:18:30;;;;;;;40.40;19.50;;;;;;;-1.20;96.75;99464.38;272498;1267;23696;-87
2023/01/27 20:24:33;;;;;;;39.40;18.50;;;;;;;-1.19;96.77;99468.46;271492;1267;22554;-87
2023/01/27 20:30:37;;;;;;;34.10;16.90;;;;;;;-1.21;96.75;99474.29;271279;1266;22558;-88
2023/01/27 20:36:39;;;;;;;39.10;18.60;;;;;;;-1.23;96.68;99472.16;271864;1267;22414;-88
2023/01/27 20:42:44;;;;;;;36.00;18.70;;;;;;;-1.25;96.69;99470.27;273645;1267;22345;-88
2023/01/27 20:48:46;;;;;;;40.80;19.80;;;;;;;-1.27;96.73;99475.06;273507;1267;22337;-89
2023/01/27 20:54:48;;;;;;;39.10;18.40;;;;;;;-1.27;96.62;99472.00;273468;1267;22858;-88
2023/01/27 21:00:50;;;;;;;42.70;19.40;;;;;;;-1.28;96.70;99473.95;271323;1267;22201;-88
2023/01/27 21:06:52;;;;;;;37.00;18.40;;;;;;;-1.28;96.78;99474.44;273564;1267;22519;-87
2023/01/27 21:12:54;;;;;;;45.60;19.20;;;;;;;-1.31;96.59;99473.60;270912;1267;22592;-87
2023/01/27 21:18:56;;;;;;;40.10;19.20;;;;;;;-1.34;96.65;99467.55;272130;1264;22574;-87
2023/01/27 21:24:58;;;;;;;42.40;19.90;;;;;;;-1.34;96.78;99463.42;273033;1267;22404;-87
2023/01/27 21:31:08;;;;;;;45.00;19.20;;;;;;;-1.34;96.80;99463.59;272915;1266;22546;-87
2023/01/27 21:37:10;;;;;;;37.00;18.50;;;;;;;-1.36;96.77;99463.40;272904;1266;22417;-87
2023/01/27 21:49:58;;;;;;;38.50;19.10;;;;;;;-1.41;96.71;99464.80;271551;1266;23384;-87
2023/01/27 21:55:55;;;;;;;38.20;19.30;;;;;;;-1.42;96.65;99463.19;271223;1267;22417;-87
2023/01/27 22:01:57;;;;;;;40.00;18.70;;;;;;;-1.42;96.67;99463.35;273811;1258;22996;-89
2023/01/27 22:08:02;;;;;;;41.80;18.90;;;;;;;-1.43;96.55;99464.64;271810;1267;22277;-87
2023/01/27 22:14:04;;;;;;;39.90;18.80;;;;;;;-1.43;96.73;99467.34;273777;1266;22409;-87
2023/01/27 22:20:06;;;;;;;37.50;18.20;;;;;;;-1.42;96.73;99466.26;273671;1267;22473;-87
2023/01/27 22:26:08;;;;;;;39.90;19.20;;;;;;;-1.42;96.61;99460.88;273842;1266;22287;-88
2023/01/27 22:32:10;;;;;;;37.50;17.50;;;;;;;-1.42;96.66;99459.21;273462;1267;24319;-88
2023/01/27 22:38:12;;;;;;;39.40;18.50;;;;;;;-1.40;96.76;99458.23;273770;1267;22576;-86
2023/01/27 22:44:14;;;;;;;37.20;18.50;;;;;;;-1.39;96.79;99461.72;270524;1267;22674;-87
2023/01/27 22:50:16;;;;;;;43.70;18.90;;;;;;;-1.38;96.79;99462.67;272846;1266;22225;-87
2023/01/27 22:56:17;;;;;;;41.30;19.20;;;;;;;-1.38;96.84;99460.42;273902;1255;22330;-86
2023/01/27 23:02:20;;;;;;;48.40;21.90;;;;;;;-1.39;96.93;99456.02;271748;1267;22618;-86
2023/01/27 23:08:22;;;;;;;43.00;21.50;;;;;;;-1.38;96.99;99454.40;270522;1257;22397;-88
2023/01/27 23:14:24;;;;;;;46.60;21.40;;;;;;;-1.38;96.98;99455.95;271629;1263;23376;-88
2023/01/27 23:20:29;;;;;;;40.80;19.40;;;;;;;-1.41;97.07;99452.29;270759;1267;22361;-88
2023/01/27 23:26:31;;;;;;;39.50;19.50;;;;;;;-1.43;96.93;99450.96;271164;1267;27634;-89
2023/01/27 23:32:34;;;;;;;46.50;19.90;;;;;;;-1.46;96.93;99453.89;270782;1266;23181;-88
2023/01/27 23:38:36;;;;;;;45.20;19.40;;;;;;;-1.46;96.93;99450.63;272128;1267;24062;-87
2023/01/27 23:44:38;;;;;;;41.50;19.60;;;;;;;-1.47;96.98;99449.72;270383;1267;23460;-88
2023/01/27 23:50:40;;;;;;;43.20;19.30;;;;;;;-1.48;96.98;99447.80;270812;1266;22442;-87
2023/01/27 23:56:41;;;;;;;42.40;20.40;;;;;;;-1.48;97.11;99444.04;272216;1266;22231;-87
